Terminal Aerodrome Forecast
Issued by NWS Sioux Falls, SD

Home | Current Version | Previous Version | Graphics & Text | Print | Product List | Glossary Off
Versions: 1 2 3 4 5 6 7 8 9 10 11 12 13 14 15 16 17 18 19 20 21 22 23 24 25

367
FTUS43 KFSD 140533 CCB
TAFFSD
TAF COR
KFSD 140533Z 1406/1506 17005KT P6SM SCT015
     FM140700 20004KT P6SM SCT010
     FM141000 VRB03KT 1SM BR SCT005
      TEMPO 1412/1414 1/2SM FG BKN003
     FM141400 36005KT P6SM SCT010
     FM141900 02004KT P6SM FEW150
     FM150500 08005KT P6SM BKN200=

USA.gov is the U.S. government's official web portal to all federal, state and local government web resources and services.